Time;durP1;ratioP1;P1;durP2;ratioP2;P2;SDS_P1;SDS_P2;PMS_P1;PMS_P2;Temp;Humidity;BMP_temperature;BMP_pressure;BME280_temperature;BME280_humidity;BME280_pressure;Samples;Min_cycle;Max_cycle;Signal;HPM_P1;HPM_P2
2023/01/24 00:02:07;;;;;;;18.25;16.15;;;;;;;3.91;100.00;103714.34;5306327;28;20073;-77
2023/01/24 00:04:38;;;;;;;18.65;16.23;;;;;;;3.92;100.00;103707.44;5302179;28;20052;-77
2023/01/24 00:07:10;;;;;;;19.35;16.65;;;;;;;3.90;100.00;103707.41;5308081;28;20047;-77
2023/01/24 00:09:41;;;;;;;18.80;16.80;;;;;;;3.89;100.00;103697.94;5306777;28;20034;-77
2023/01/24 00:12:12;;;;;;;19.05;16.77;;;;;;;3.93;100.00;103703.94;5306095;28;20019;-77
2023/01/24 00:14:44;;;;;;;17.08;15.23;;;;;;;3.96;100.00;103703.91;5301933;28;20024;-77
2023/01/24 00:17:15;;;;;;;16.27;14.57;;;;;;;3.96;100.00;103709.09;5310042;28;20062;-77
2023/01/24 00:19:46;;;;;;;19.35;16.90;;;;;;;3.88;100.00;103698.81;5309532;28;20074;-77
2023/01/24 00:22:18;;;;;;;17.35;15.55;;;;;;;3.92;100.00;103713.47;5305895;28;20566;-77
2023/01/24 00:24:49;;;;;;;17.05;15.20;;;;;;;3.67;100.00;103666.19;5304848;28;20032;-77
2023/01/24 00:27:20;;;;;;;17.67;15.43;;;;;;;3.96;100.00;103709.09;5303537;27;20031;-77
2023/01/24 00:29:51;;;;;;;18.40;15.77;;;;;;;3.96;100.00;103703.91;5311914;28;20074;-79
2023/01/24 00:32:23;;;;;;;17.30;15.25;;;;;;;3.91;100.00;103701.38;5307843;28;20035;-77
2023/01/24 00:34:55;;;;;;;21.13;15.48;;;;;;;3.94;100.00;103703.06;5304166;28;20473;-76
2023/01/24 00:37:27;;;;;;;19.10;15.77;;;;;;;3.94;100.00;103690.09;5302814;28;20150;-76
2023/01/24 00:39:58;;;;;;;16.40;14.57;;;;;;;3.95;100.00;103691.84;5310010;28;20024;-77
2023/01/24 00:42:29;;;;;;;19.73;15.48;;;;;;;3.96;100.00;103688.34;5308340;28;20053;-76
2023/01/24 00:45:00;;;;;;;17.20;15.15;;;;;;;3.95;100.00;103690.09;5319420;27;20093;-76
2023/01/24 00:47:32;;;;;;;17.83;15.20;;;;;;;3.93;100.00;103681.47;5328337;27;20046;-76
2023/01/24 00:50:03;;;;;;;17.70;14.38;;;;;;;3.89;100.00;103677.19;5333160;27;20034;-76
2023/01/24 00:52:35;;;;;;;17.60;15.35;;;;;;;3.85;100.00;103665.13;5327551;27;20117;-76
2023/01/24 00:55:06;;;;;;;16.80;14.55;;;;;;;3.92;100.00;103674.56;5325776;27;20027;-76
2023/01/24 00:57:37;;;;;;;18.35;15.68;;;;;;;3.94;100.00;103678.00;5320538;27;20027;-76
2023/01/24 01:00:09;;;;;;;17.35;15.00;;;;;;;3.94;100.00;103678.00;5324449;27;20019;-76
2023/01/24 01:02:41;;;;;;;17.25;15.32;;;;;;;3.93;100.00;103676.28;5324939;27;20369;-76
2023/01/24 01:05:12;;;;;;;16.80;14.95;;;;;;;3.94;100.00;103674.53;5331226;27;20027;-76
2023/01/24 01:07:44;;;;;;;18.42;15.60;;;;;;;3.92;100.00;103676.31;5327646;27;20030;-76
2023/01/24 01:10:16;;;;;;;17.70;15.48;;;;;;;3.82;100.00;103668.59;5330480;27;20392;-76
2023/01/24 01:12:47;;;;;;;16.77;14.05;;;;;;;3.90;100.00;103673.69;5304899;27;20075;-76
2023/01/24 01:15:19;;;;;;;17.77;15.23;;;;;;;3.88;100.00;103680.66;5326313;27;20027;-76
2023/01/24 01:17:50;;;;;;;18.38;15.50;;;;;;;3.87;100.00;103677.22;5328590;27;20023;-76
2023/01/24 01:20:21;;;;;;;17.50;15.00;;;;;;;3.81;100.00;103664.31;5326953;27;20100;-76
2023/01/24 01:22:52;;;;;;;16.83;14.70;;;;;;;3.86;100.00;103678.09;5324508;27;20047;-77
2023/01/24 01:25:24;;;;;;;17.88;14.90;;;;;;;3.89;100.00;103672.84;5329738;27;20028;-76
2023/01/24 01:27:55;;;;;;;20.20;14.25;;;;;;;3.86;100.00;103661.66;5329147;27;20511;-78
2023/01/24 01:30:26;;;;;;;16.15;12.93;;;;;;;3.85;100.00;103670.31;5329103;27;20197;-77
2023/01/24 01:32:58;;;;;;;14.65;12.65;;;;;;;3.88;100.00;103675.47;5330439;27;20474;-76
2023/01/24 01:35:29;;;;;;;15.30;13.65;;;;;;;3.82;100.00;103671.19;5326261;27;20057;-76
2023/01/24 01:38:00;;;;;;;15.23;13.52;;;;;;;3.85;100.00;103676.34;5328008;27;20020;-76
2023/01/24 01:40:32;;;;;;;15.80;13.75;;;;;;;3.86;100.00;103677.22;5329860;27;20035;-76
2023/01/24 01:43:03;;;;;;;16.58;14.68;;;;;;;3.79;100.00;103668.66;5329918;27;20477;-76
2023/01/24 01:45:39;;;;;;;15.68;13.55;;;;;;;3.92;100.00;103674.56;5326013;27;20074;-76
2023/01/24 01:48:19;;;;;;;15.32;13.18;;;;;;;3.96;100.00;103673.66;5325308;27;20019;-76
2023/01/24 01:51:02;;;;;;;14.93;12.88;;;;;;;3.99;100.00;103673.63;5324872;27;20033;-77
2023/01/24 01:53:45;;;;;;;17.20;13.93;;;;;;;4.00;100.00;103672.72;5327615;27;20023;-76
2023/01/24 01:56:40;;;;;;;15.55;13.85;;;;;;;4.03;100.00;103658.88;5326066;27;20350;-77
2023/01/24 01:59:17;;;;;;;16.83;13.98;;;;;;;3.90;100.00;103669.41;5308395;27;20096;-76
2023/01/24 02:01:51;;;;;;;15.88;13.85;;;;;;;3.87;100.00;103669.44;5322672;27;20035;-76
2023/01/24 02:04:25;;;;;;;;;;;;;;;4.37;100.00;103657.56;5315282;27;20059;-76
2023/01/24 02:07:04;;;;;;;15.18;13.48;;;;;;;3.98;100.00;103671.91;5320347;27;20511;-76
2023/01/24 02:09:45;;;;;;;15.20;13.60;;;;;;;3.96;100.00;103667.59;5316284;27;20063;-77
2023/01/24 02:12:24;;;;;;;17.23;14.55;;;;;;;3.89;100.00;103659.03;5314206;27;20027;-76
2023/01/24 02:18:00;;;;;;;17.45;14.80;;;;;;;3.86;100.00;103661.66;5322510;27;20043;-76
2023/01/24 02:20:46;;;;;;;16.48;14.60;;;;;;;4.03;100.00;103669.25;5320056;27;20103;-76
2023/01/24 02:23:54;;;;;;;18.25;14.90;;;;;;;4.11;100.00;103663.09;5320189;27;20078;-76
2023/01/24 02:26:27;;;;;;;17.08;14.43;;;;;;;3.84;100.00;103660.81;5320223;27;20023;-77
2023/01/24 02:29:04;;;;;;;;;;;;;;;4.34;100.00;103662.78;5319421;27;20123;-76
2023/01/24 02:31:58;;;;;;;17.95;15.52;;;;;;;4.06;100.00;103662.28;5320837;27;20644;-76
2023/01/24 02:34:30;;;;;;;18.30;14.98;;;;;;;3.78;100.00;103653.97;5326967;27;20019;-76
2023/01/24 02:37:06;;;;;;;19.85;16.13;;;;;;;3.82;100.00;103668.59;5325891;27;20019;-76
2023/01/24 02:39:44;;;;;;;18.35;15.50;;;;;;;3.92;100.00;103664.19;5324704;27;20036;-76
2023/01/24 02:42:22;;;;;;;17.20;14.73;;;;;;;3.77;100.00;103656.59;5319886;28;20438;-76
2023/01/24 02:45:00;;;;;;;18.15;15.40;;;;;;;3.88;100.00;103654.72;5326634;27;20057;-77
2023/01/24 02:47:37;;;;;;;17.30;15.43;;;;;;;3.75;100.00;103654.03;5325870;28;20040;-77
2023/01/24 02:50:09;;;;;;;19.33;16.42;;;;;;;3.75;100.00;103666.09;5328589;28;20485;-78
2023/01/24 02:55:30;;;;;;;18.40;15.50;;;;;;;3.77;100.00;103675.59;5320311;28;20384;-76
2023/01/24 02:58:08;;;;;;;20.50;16.08;;;;;;;3.78;100.00;103666.91;5321955;28;20031;-78
2023/01/24 03:00:41;;;;;;;18.42;15.32;;;;;;;3.82;100.00;103659.97;5306477;28;20058;-77
2023/01/24 03:03:14;;;;;;;20.60;17.17;;;;;;;3.77;100.00;103662.63;5323619;28;20035;-76
2023/01/24 03:05:57;;;;;;;18.60;16.00;;;;;;;3.77;100.00;103654.84;5322451;28;20023;-77
2023/01/24 03:08:31;;;;;;;18.58;16.33;;;;;;;3.81;100.00;103653.94;5316505;28;20042;-78
2023/01/24 03:11:03;;;;;;;18.67;15.45;;;;;;;3.66;100.00;103654.09;5327994;28;20088;-77
2023/01/24 03:36:19;;;;;;;20.33;16.10;;;;;;;3.69;100.00;103650.63;5328399;27;20072;-77
2023/01/24 03:41:40;;;;;;;20.73;16.95;;;;;;;3.58;100.00;103625.66;5332860;27;20391;-78
2023/01/24 03:44:11;;;;;;;21.15;16.80;;;;;;;3.77;100.00;103654.00;5311551;27;20043;-77
2023/01/24 03:46:43;;;;;;;18.80;16.13;;;;;;;3.76;100.00;103647.94;5335643;27;20027;-78
2023/01/24 03:49:16;;;;;;;19.30;16.52;;;;;;;3.77;100.00;103654.84;5328927;27;20020;-77
2023/01/24 03:54:37;;;;;;;18.50;14.40;;;;;;;3.71;100.00;103648.84;5329091;27;19923;-77
2023/01/24 03:57:08;;;;;;;20.85;16.58;;;;;;;3.64;100.00;103661.91;5331211;27;20031;-77
2023/01/24 03:59:40;;;;;;;18.65;15.63;;;;;;;3.63;100.00;103659.31;5332074;27;20023;-76
2023/01/24 04:02:11;;;;;;;20.08;15.95;;;;;;;3.65;100.00;103662.75;5331777;27;20260;-76
2023/01/24 04:07:32;;;;;;;17.98;15.63;;;;;;;3.64;100.00;103654.13;5321330;27;20496;-77
2023/01/24 04:10:04;;;;;;;18.75;16.30;;;;;;;3.59;100.00;103645.53;5326222;27;20060;-77
2023/01/24 04:12:35;;;;;;;19.45;16.38;;;;;;;3.63;100.00;103654.97;5320517;27;20373;-77
2023/01/24 04:15:08;;;;;;;18.90;16.60;;;;;;;3.61;100.00;103656.75;5327612;27;20023;-76
2023/01/24 04:17:39;;;;;;;21.50;17.17;;;;;;;3.58;100.00;103654.19;5331325;27;20400;-76
2023/01/24 04:20:11;;;;;;;19.63;16.00;;;;;;;3.62;100.00;103655.88;5322137;27;20031;-76
2023/01/24 04:22:42;;;;;;;20.00;15.93;;;;;;;3.60;100.00;103649.84;5331279;27;20037;-76
2023/01/24 04:25:14;;;;;;;18.55;15.55;;;;;;;3.64;100.00;103656.72;5327115;27;20024;-77
2023/01/24 04:27:45;;;;;;;17.85;15.73;;;;;;;3.51;100.00;103644.75;5328875;27;20030;-77
2023/01/24 04:30:17;;;;;;;18.77;15.50;;;;;;;3.48;100.00;103643.91;5310964;27;20594;-78
2023/01/24 04:32:48;;;;;;;17.88;15.43;;;;;;;3.52;100.00;103661.16;5328596;27;20399;-76
2023/01/24 04:35:23;;;;;;;20.20;16.15;;;;;;;3.56;100.00;103657.66;5329612;27;20361;-77
2023/01/24 04:38:01;;;;;;;19.83;16.25;;;;;;;3.62;100.00;103663.63;5326728;27;20472;-76
2023/01/24 04:40:32;;;;;;;19.75;16.38;;;;;;;3.42;100.00;103653.47;5332120;27;20042;-76
2023/01/24 04:43:04;;;;;;;17.92;16.00;;;;;;;3.47;100.00;103658.63;5325807;27;20481;-77
2023/01/24 04:45:35;;;;;;;19.13;16.58;;;;;;;3.45;100.00;103659.50;5329469;27;20030;-77
2023/01/24 04:48:07;;;;;;;17.75;15.35;;;;;;;3.42;100.00;103661.25;5327805;27;20067;-76
2023/01/24 04:50:38;;;;;;;18.65;16.08;;;;;;;3.31;100.00;103651.88;5323635;27;20043;-77
2023/01/24 04:53:09;;;;;;;18.15;15.18;;;;;;;3.33;100.00;103656.19;5323295;27;20015;-77
2023/01/24 04:55:40;;;;;;;18.10;15.23;;;;;;;3.47;100.00;103663.78;5327092;27;20030;-77
2023/01/24 04:58:12;;;;;;;18.20;15.90;;;;;;;3.44;100.00;103663.81;5316716;27;20031;-78
2023/01/24 05:00:43;;;;;;;20.80;16.23;;;;;;;3.36;100.00;103650.94;5328923;27;20114;-76
2023/01/24 05:03:14;;;;;;;18.13;15.57;;;;;;;3.40;100.00;103656.94;5327922;27;20788;-76
2023/01/24 05:05:50;;;;;;;19.17;15.98;;;;;;;3.49;100.00;103667.25;5326542;27;20039;-77
2023/01/24 05:08:21;;;;;;;18.95;16.38;;;;;;;3.30;100.00;103655.34;5328935;27;20035;-77
2023/01/24 05:10:52;;;;;;;18.92;16.15;;;;;;;3.37;100.00;103665.63;5319091;27;20042;-76
2023/01/24 05:13:24;;;;;;;19.90;16.27;;;;;;;3.38;100.00;103659.56;5327849;27;20022;-76
2023/01/24 05:15:55;;;;;;;18.08;15.63;;;;;;;3.42;100.00;103665.59;5326371;27;20076;-77
2023/01/24 05:18:26;;;;;;;18.73;16.63;;;;;;;3.41;100.00;103666.47;5325900;27;20023;-76
2023/01/24 05:21:05;;;;;;;18.80;15.70;;;;;;;3.55;100.00;103666.31;5330432;27;20030;-77
2023/01/24 05:23:36;;;;;;;19.83;16.45;;;;;;;3.41;100.00;103669.91;5321951;27;20027;-77
2023/01/24 05:26:08;;;;;;;18.45;15.45;;;;;;;3.46;100.00;103667.28;5315541;27;20087;-76
2023/01/24 05:28:39;;;;;;;19.67;16.00;;;;;;;3.41;100.00;103663.88;5332565;27;20023;-77
2023/01/24 05:31:11;;;;;;;18.67;15.95;;;;;;;3.44;100.00;103666.41;5327266;27;20011;-77
2023/01/24 05:33:42;;;;;;;18.80;15.85;;;;;;;3.35;100.00;103667.38;5328408;27;20035;-77
2023/01/24 05:36:23;;;;;;;18.60;16.58;;;;;;;3.52;100.00;103679.28;5313533;27;20023;-76
2023/01/24 05:38:54;;;;;;;17.55;15.68;;;;;;;3.39;100.00;103675.97;5327011;27;20507;-78
2023/01/24 05:41:25;;;;;;;19.50;16.08;;;;;;;3.41;100.00;103676.84;5326555;27;20027;-77
2023/01/24 05:43:56;;;;;;;17.55;15.35;;;;;;;3.42;100.00;103671.63;5326699;27;20131;-78
2023/01/24 05:46:29;;;;;;;17.98;15.77;;;;;;;3.37;100.00;103677.72;5331183;27;20055;-78
2023/01/24 05:49:00;;;;;;;17.45;15.55;;;;;;;3.41;100.00;103687.19;5327989;27;20026;-78
2023/01/24 05:51:31;;;;;;;18.02;15.75;;;;;;;3.32;100.00;103692.44;5326682;27;20032;-78
2023/01/24 05:54:03;;;;;;;17.73;15.45;;;;;;;3.31;100.00;103691.59;5317444;27;20388;-77
2023/01/24 05:56:34;;;;;;;18.90;16.02;;;;;;;3.27;100.00;103687.31;5324819;27;20419;-77
2023/01/24 05:59:05;;;;;;;19.90;16.75;;;;;;;3.35;100.00;103701.06;5324561;27;20110;-77
2023/01/24 06:01:36;;;;;;;19.63;16.08;;;;;;;3.38;100.00;103697.59;5322227;27;20034;-77
2023/01/24 06:04:08;;;;;;;19.05;16.90;;;;;;;3.32;100.00;103697.63;5329250;27;20027;-77
2023/01/24 06:06:39;;;;;;;18.67;15.30;;;;;;;3.40;100.00;103706.19;5329731;27;20023;-77
2023/01/24 06:09:10;;;;;;;17.20;15.13;;;;;;;3.37;100.00;103706.22;5328308;27;20018;-77
2023/01/24 06:11:42;;;;;;;18.38;15.38;;;;;;;3.34;100.00;103707.13;5326783;27;20111;-77
2023/01/24 06:14:13;;;;;;;18.33;15.32;;;;;;;3.31;100.00;103711.47;5309516;28;20022;-77
2023/01/24 06:16:45;;;;;;;18.52;15.82;;;;;;;3.31;100.00;103708.88;5328061;27;20110;-77
2023/01/24 06:19:19;;;;;;;18.45;15.30;;;;;;;3.30;100.00;103717.53;5315277;27;20415;-77
2023/01/24 06:22:03;;;;;;;17.63;15.15;;;;;;;3.37;100.00;103703.63;5323511;27;20027;-77
2023/01/24 06:24:34;;;;;;;;;;;;;;;3.84;100.00;103702.31;5321093;27;20729;-77
2023/01/24 06:27:07;;;;;;;16.45;14.00;;;;;;;3.37;100.00;103714.88;5324473;27;19956;-77
2023/01/24 06:29:40;;;;;;;17.73;15.05;;;;;;;3.25;100.00;103709.78;5323605;27;20061;-77
2023/01/24 06:32:53;;;;;;;16.90;14.57;;;;;;;3.54;100.00;103721.63;5322691;27;20035;-77
2023/01/24 06:36:10;;;;;;;16.75;14.50;;;;;;;3.49;100.00;103719.09;5310966;28;20027;-77
2023/01/24 06:38:44;;;;;;;17.02;14.30;;;;;;;3.37;100.00;103724.34;5322243;27;20054;-77
2023/01/24 06:41:17;;;;;;;17.23;14.43;;;;;;;3.30;100.00;103727.91;5323165;28;20487;-77
2023/01/24 06:43:48;;;;;;;17.97;14.57;;;;;;;3.12;100.00;103709.00;5314675;27;20035;-77
2023/01/24 06:46:23;;;;;;;17.48;15.48;;;;;;;3.19;100.00;103722.78;5327562;27;20077;-77
2023/01/24 06:48:54;;;;;;;17.65;15.10;;;;;;;3.18;100.00;103728.81;5325323;28;20027;-77
2023/01/24 06:51:25;;;;;;;17.15;14.93;;;;;;;3.15;100.00;103731.47;5324833;28;20031;-77
2023/01/24 06:53:57;;;;;;;18.15;15.68;;;;;;;3.16;100.00;103721.06;5323431;28;20031;-77
2023/01/24 06:56:28;;;;;;;17.10;14.60;;;;;;;3.18;100.00;103728.81;5322635;28;20035;-77
2023/01/24 06:58:59;;;;;;;17.98;15.32;;;;;;;3.18;100.00;103726.22;5321870;28;20053;-77
2023/01/24 07:01:31;;;;;;;19.40;15.93;;;;;;;3.14;100.00;103722.81;5324532;28;20035;-77
2023/01/24 07:04:02;;;;;;;18.98;15.45;;;;;;;3.15;100.00;103724.53;5325557;28;20392;-78
2023/01/24 07:06:33;;;;;;;18.88;16.25;;;;;;;3.17;100.00;103724.50;5327332;28;20449;-78
2023/01/24 07:09:05;;;;;;;18.63;15.73;;;;;;;3.05;100.00;103707.34;5320728;28;20114;-77
2023/01/24 07:11:36;;;;;;;17.20;15.05;;;;;;;3.20;100.00;103731.41;5330482;27;20426;-77
2023/01/24 07:14:07;;;;;;;19.13;16.50;;;;;;;3.20;100.00;103723.66;5321755;27;20015;-78
2023/01/24 07:16:39;;;;;;;18.75;15.60;;;;;;;3.23;100.00;103731.41;5328888;27;20035;-77
2023/01/24 07:19:15;;;;;;;19.90;16.63;;;;;;;3.26;100.00;103736.53;5316492;27;20024;-77
2023/01/24 07:21:47;;;;;;;18.98;15.80;;;;;;;3.18;100.00;103744.38;5327993;27;20376;-77
2023/01/24 07:24:21;;;;;;;19.13;16.20;;;;;;;3.02;100.00;103727.22;5327504;27;20028;-78
2023/01/24 07:26:53;;;;;;;21.00;16.77;;;;;;;3.03;100.00;103740.19;5333893;27;20023;-77
2023/01/24 07:29:24;;;;;;;21.77;15.82;;;;;;;3.09;100.00;103749.63;5325052;27;20118;-77
2023/01/24 07:31:56;;;;;;;18.23;15.73;;;;;;;3.05;100.00;103769.50;5321482;27;20029;-78
2023/01/24 07:34:27;;;;;;;18.52;15.35;;;;;;;2.94;100.00;103763.53;5325448;27;20019;-77
2023/01/24 07:36:59;;;;;;;18.75;15.02;;;;;;;2.95;100.00;103761.78;5325321;27;20426;-77
2023/01/24 07:39:30;;;;;;;17.33;14.52;;;;;;;3.03;100.00;103767.78;5322694;27;20066;-77
2023/01/24 07:42:04;;;;;;;19.83;16.10;;;;;;;3.12;100.00;103773.78;5305898;27;20046;-77
2023/01/24 07:44:35;;;;;;;16.63;13.88;;;;;;;3.06;100.00;103771.22;5322760;27;20365;-77
2023/01/24 07:47:06;;;;;;;17.75;15.27;;;;;;;3.03;100.00;103767.78;5322325;27;20046;-78
2023/01/24 07:49:38;;;;;;;19.40;15.77;;;;;;;3.09;100.00;103778.13;5303642;27;20035;-77
2023/01/24 07:52:11;;;;;;;19.08;15.52;;;;;;;3.08;100.00;103774.66;5324731;27;20030;-78
2023/01/24 07:54:43;;;;;;;18.80;16.02;;;;;;;3.00;100.00;103776.44;5328841;27;20031;-78
2023/01/24 07:57:15;;;;;;;17.63;15.00;;;;;;;2.95;100.00;103780.78;5328836;27;20031;-77
2023/01/24 07:59:46;;;;;;;17.13;14.97;;;;;;;3.04;100.00;103785.06;5322051;27;20023;-79
2023/01/24 08:02:18;;;;;;;17.42;14.65;;;;;;;3.01;100.00;103792.84;5319790;27;20034;-78
2023/01/24 08:04:49;;;;;;;19.33;15.30;;;;;;;2.98;100.00;103783.34;5325806;27;20027;-77
2023/01/24 08:07:21;;;;;;;18.63;15.52;;;;;;;2.93;100.00;103792.88;5308987;27;20442;-77
2023/01/24 08:09:52;;;;;;;19.75;16.17;;;;;;;2.89;100.00;103783.41;5312398;27;20223;-78
2023/01/24 08:12:24;;;;;;;18.17;15.05;;;;;;;2.90;100.00;103772.19;5304183;27;20741;-78
2023/01/24 08:14:55;;;;;;;18.98;15.48;;;;;;;2.94;100.00;103792.00;5322381;27;20366;-77
2023/01/24 08:17:26;;;;;;;19.17;15.70;;;;;;;2.92;100.00;103781.66;5331374;27;20035;-77
2023/01/24 08:19:58;;;;;;;20.13;16.75;;;;;;;2.97;100.00;103788.56;5309860;27;20150;-76
2023/01/24 08:22:29;;;;;;;20.30;17.33;;;;;;;2.92;100.00;103773.06;5316834;27;20031;-77
2023/01/24 08:25:00;;;;;;;21.60;16.98;;;;;;;3.03;100.00;103791.09;5322437;27;20505;-77
2023/01/24 08:27:32;;;;;;;19.63;16.58;;;;;;;2.96;100.00;103792.88;5320925;27;20039;-77
2023/01/24 08:30:04;;;;;;;20.23;17.10;;;;;;;2.98;100.00;103792.84;5310379;27;20106;-77
2023/01/24 08:32:35;;;;;;;19.80;16.75;;;;;;;2.95;100.00;103796.31;5303724;27;20043;-77
2023/01/24 08:35:07;;;;;;;20.40;16.20;;;;;;;2.98;100.00;103788.53;5310849;27;20407;-77
2023/01/24 08:37:38;;;;;;;19.95;15.70;;;;;;;2.96;100.00;103786.84;5313585;27;20042;-77
2023/01/24 08:40:10;;;;;;;19.40;16.00;;;;;;;3.02;100.00;103792.81;5306588;27;20016;-77
2023/01/24 08:42:41;;;;;;;19.33;16.20;;;;;;;2.98;100.00;103803.22;5316387;27;20027;-77
2023/01/24 08:45:13;;;;;;;18.33;15.02;;;;;;;3.03;100.00;103804.94;5320279;27;21076;-77
2023/01/24 08:47:44;;;;;;;20.27;16.45;;;;;;;2.98;100.00;103813.56;5327701;27;20027;-77
2023/01/24 08:50:16;;;;;;;18.33;15.68;;;;;;;2.93;100.00;103811.88;5299011;27;20036;-77
2023/01/24 08:52:48;;;;;;;19.67;15.60;;;;;;;2.85;100.00;103799.84;5295856;27;21024;-77
2023/01/24 08:55:19;;;;;;;19.23;15.35;;;;;;;2.89;100.00;103809.31;5325452;27;20023;-77
2023/01/24 08:57:51;;;;;;;18.73;15.57;;;;;;;2.97;100.00;103817.91;5320727;27;20058;-77
2023/01/24 09:00:22;;;;;;;19.80;15.57;;;;;;;2.95;100.00;103814.44;5314669;27;20438;-77
2023/01/24 09:02:54;;;;;;;20.15;15.70;;;;;;;2.87;100.00;103811.88;5300683;27;20035;-77
2023/01/24 09:05:25;;;;;;;18.98;15.43;;;;;;;2.99;100.00;103826.50;5317964;27;20435;-78
2023/01/24 09:07:57;;;;;;;19.58;16.20;;;;;;;2.97;100.00;103830.84;5324117;27;20020;-77
2023/01/24 09:10:28;;;;;;;20.95;15.82;;;;;;;3.01;100.00;103832.56;5307735;27;20133;-77
2023/01/24 09:13:00;;;;;;;19.45;15.55;;;;;;;2.89;100.00;103820.53;5318203;27;20032;-78
2023/01/24 09:15:32;;;;;;;21.60;16.30;;;;;;;2.92;100.00;103828.28;5315341;27;20465;-78
2023/01/24 09:18:03;;;;;;;19.38;16.23;;;;;;;2.97;100.00;103825.66;5322389;27;20080;-77
2023/01/24 09:20:35;;;;;;;19.60;16.48;;;;;;;3.02;100.00;103826.50;5316630;27;20016;-77
2023/01/24 09:23:11;;;;;;;20.30;16.60;;;;;;;3.14;100.00;103821.28;5326586;27;20401;-78
2023/01/24 09:25:50;;;;;;;19.98;15.98;;;;;;;3.14;100.00;103826.44;5326958;27;20031;-78
2023/01/24 09:28:22;;;;;;;22.27;16.13;;;;;;;3.04;100.00;103829.09;5303059;27;20023;-78
2023/01/24 09:30:53;;;;;;;18.60;15.00;;;;;;;3.04;100.00;103819.59;5314850;27;20034;-78
2023/01/24 09:33:25;;;;;;;20.95;15.23;;;;;;;3.06;100.00;103824.75;5320235;27;20025;-78
2023/01/24 09:35:58;;;;;;;20.23;15.98;;;;;;;3.12;100.00;103824.72;5317760;27;20050;-78
2023/01/24 09:38:32;;;;;;;19.13;16.35;;;;;;;3.13;100.00;103822.13;5321981;27;20097;-78
2023/01/24 09:41:08;;;;;;;19.85;16.38;;;;;;;3.23;100.00;103830.72;5297474;27;20024;-78
2023/01/24 09:44:30;;;;;;;22.00;16.35;;;;;;;3.38;100.00;103833.19;5317619;27;20400;-78
2023/01/24 09:47:15;;;;;;;19.02;15.68;;;;;;;3.34;100.00;103833.22;5274592;27;20039;-78
2023/01/24 09:49:55;;;;;;;20.23;16.23;;;;;;;3.34;100.00;103830.66;5324035;27;20047;-78
2023/01/24 09:52:45;;;;;;;18.60;15.30;;;;;;;3.31;100.00;103833.25;5305032;27;20195;-78
2023/01/24 09:55:25;;;;;;;20.60;16.38;;;;;;;3.35;100.00;103837.53;5320309;27;20012;-78
2023/01/24 09:58:34;;;;;;;20.33;16.70;;;;;;;3.48;100.00;103838.31;5301608;27;20067;-78
2023/01/24 10:01:14;;;;;;;20.70;16.15;;;;;;;3.42;100.00;103845.25;5316987;27;20027;-78
2023/01/24 10:03:46;;;;;;;17.48;14.15;;;;;;;3.33;100.00;103840.16;5306957;27;20031;-78
2023/01/24 10:06:23;;;;;;;20.85;15.23;;;;;;;3.42;100.00;103845.25;5315795;27;20504;-78
2023/01/24 10:09:13;;;;;;;20.48;15.25;;;;;;;3.31;100.00;103844.47;5318616;27;20101;-78
2023/01/24 10:12:24;;;;;;;19.92;15.60;;;;;;;3.58;100.00;103853.78;5300496;27;20031;-78
2023/01/24 10:15:32;;;;;;;18.15;14.75;;;;;;;3.57;100.00;103839.13;5320256;27;20156;-78
2023/01/24 10:18:15;;;;;;;18.23;14.07;;;;;;;3.36;100.00;103850.47;5288770;27;20449;-78
2023/01/24 10:21:21;;;;;;;21.58;14.68;;;;;;;3.53;100.00;103847.78;5313517;27;20530;-78
2023/01/24 10:24:06;;;;;;;17.67;13.55;;;;;;;3.41;100.00;103840.97;5310238;27;20356;-77
2023/01/24 10:26:44;;;;;;;16.40;13.52;;;;;;;3.35;100.00;103848.75;5319938;27;20384;-78
2023/01/24 10:29:30;;;;;;;17.17;13.95;;;;;;;3.53;100.00;103852.13;5317669;27;20023;-78
2023/01/24 10:32:13;;;;;;;17.05;13.00;;;;;;;3.47;100.00;103845.22;5308055;28;20035;-78
2023/01/24 10:34:47;;;;;;;17.00;13.25;;;;;;;3.47;100.00;103857.34;5317130;27;20038;-78
2023/01/24 10:37:22;;;;;;;23.10;13.35;;;;;;;3.42;100.00;103850.44;5324225;27;20019;-78
2023/01/24 10:39:54;;;;;;;21.60;13.10;;;;;;;3.35;100.00;103845.31;5315563;27;20208;-78
2023/01/24 10:42:28;;;;;;;17.52;13.52;;;;;;;3.32;100.00;103830.63;5321017;27;20031;-78
2023/01/24 10:45:09;;;;;;;20.55;13.25;;;;;;;3.33;100.00;103847.03;5308259;27;20058;-78
2023/01/24 10:47:46;;;;;;;16.70;12.85;;;;;;;3.23;100.00;103829.84;5287284;28;20032;-78
2023/01/24 10:50:18;;;;;;;15.15;12.32;;;;;;;3.29;100.00;103830.66;5303099;28;20028;-78
2023/01/24 10:52:49;;;;;;;15.02;12.30;;;;;;;3.34;100.00;103839.28;5308510;28;20109;-78
2023/01/24 10:55:24;;;;;;;15.73;12.98;;;;;;;3.41;100.00;103840.97;5316738;28;20035;-78
2023/01/24 10:57:55;;;;;;;14.05;11.68;;;;;;;3.32;100.00;103842.75;5314326;28;20122;-78
2023/01/24 11:00:35;;;;;;;15.05;12.48;;;;;;;3.49;100.00;103840.06;5299048;28;20037;-78
2023/01/24 11:03:27;;;;;;;14.88;11.75;;;;;;;3.52;100.00;103840.84;5306881;28;20493;-78
2023/01/24 11:05:59;;;;;;;15.68;12.18;;;;;;;3.36;100.00;103836.66;5313340;28;20038;-78
2023/01/24 11:08:36;;;;;;;15.00;12.00;;;;;;;3.46;100.00;103830.56;5313109;28;20035;-78
2023/01/24 11:11:29;;;;;;;15.82;12.77;;;;;;;3.59;100.00;103837.34;5310053;28;20512;-77
2023/01/24 11:14:02;;;;;;;14.15;11.57;;;;;;;3.44;100.00;103834.88;5306260;28;20023;-77
2023/01/24 11:16:42;;;;;;;14.52;11.82;;;;;;;3.62;100.00;103833.88;5313405;28;20027;-78
2023/01/24 11:19:31;;;;;;;15.80;12.85;;;;;;;3.70;100.00;103828.66;5312631;28;20051;-78
2023/01/24 11:22:20;;;;;;;14.82;11.45;;;;;;;3.65;100.00;103819.16;5315234;28;20043;-78
2023/01/24 11:24:57;;;;;;;13.60;11.20;;;;;;;3.53;100.00;103814.09;5320168;28;20032;-78
2023/01/24 11:27:28;;;;;;;14.52;11.68;;;;;;;3.53;100.00;103816.69;5321061;28;20562;-78
2023/01/24 11:30:18;;;;;;;15.13;11.63;;;;;;;3.61;100.00;103799.34;5310626;28;20019;-78
2023/01/24 11:32:58;;;;;;;14.65;12.00;;;;;;;3.47;100.00;103813.25;5318602;28;20035;-78
2023/01/24 11:35:35;;;;;;;14.80;12.05;;;;;;;3.49;100.00;103811.53;5314657;28;20472;-78
2023/01/24 11:38:22;;;;;;;14.15;11.48;;;;;;;3.60;100.00;103801.94;5316515;28;20035;-78
2023/01/24 11:41:09;;;;;;;15.07;12.35;;;;;;;3.66;100.00;103810.50;5311607;28;20023;-78
2023/01/24 11:44:02;;;;;;;15.00;11.25;;;;;;;3.70;100.00;103813.09;5309545;28;20040;-78
2023/01/24 11:46:44;;;;;;;14.82;12.38;;;;;;;3.51;100.00;103807.19;5307965;28;20518;-78
2023/01/24 11:49:53;;;;;;;13.88;11.57;;;;;;;3.73;100.00;103802.69;5314113;28;20072;-79
2023/01/24 11:52:36;;;;;;;13.82;11.90;;;;;;;3.65;100.00;103808.81;5299644;28;20059;-79
2023/01/24 11:55:10;;;;;;;;;;;;;;;4.03;100.00;103802.41;5308919;27;20032;-78
2023/01/24 11:57:58;;;;;;;;;;;;;;;4.07;100.00;103796.31;5325480;27;19919;-78
2023/01/24 12:00:50;;;;;;;14.90;11.38;;;;;;;3.70;100.00;103794.94;5317725;27;19915;-78
2023/01/24 12:03:59;;;;;;;15.48;11.82;;;;;;;3.74;100.00;103797.47;5327105;27;20110;-78
2023/01/24 12:06:50;;;;;;;14.07;12.10;;;;;;;3.58;100.00;103772.56;5315641;27;20031;-78
2023/01/24 12:09:25;;;;;;;14.52;12.05;;;;;;;3.59;100.00;103789.84;5320372;27;20039;-78
2023/01/24 12:12:03;;;;;;;13.90;11.60;;;;;;;3.45;100.00;103783.91;5325576;27;20106;-78
2023/01/24 12:14:46;;;;;;;14.90;12.45;;;;;;;3.54;100.00;103784.69;5316917;27;20057;-78
2023/01/24 12:17:56;;;;;;;16.90;12.15;;;;;;;3.62;100.00;103762.16;5325190;27;20549;-78
2023/01/24 12:20:46;;;;;;;13.82;10.85;;;;;;;3.56;100.00;103764.81;5320153;27;20023;-78
2023/01/24 12:23:28;;;;;;;15.98;12.48;;;;;;;3.60;100.00;103763.91;5318935;27;20064;-78
2023/01/24 12:26:13;;;;;;;16.02;11.90;;;;;;;3.60;100.00;103752.69;5313979;27;20089;-78
2023/01/24 12:29:01;;;;;;;15.13;11.93;;;;;;;3.58;100.00;103752.69;5311093;27;20034;-78